createdAt,value
2019-04-03T00:01:45.078Z,100624.56
2019-04-03T00:04:34.399Z,100623.16
2019-04-03T00:07:05.532Z,100623.16
2019-04-03T00:09:37.577Z,100620.30
2019-04-03T00:12:07.055Z,100612.69
2019-04-03T00:14:36.680Z,100615.46
2019-04-03T00:17:06.408Z,100612.61
2019-04-03T00:19:35.930Z,100608.92
2019-04-03T00:22:24.395Z,100605.72
2019-04-03T00:27:53.226Z,100596.31
2019-04-03T00:35:54.005Z,100596.22
2019-04-03T00:38:25.750Z,100592.63
2019-04-03T00:40:55.740Z,100593.59
2019-04-03T00:43:26.887Z,100593.80
2019-04-03T00:46:29.522Z,100582.78
2019-04-03T00:48:55.348Z,100580.16
2019-04-03T00:51:43.751Z,100581.12
2019-04-03T00:54:13.524Z,100574.53
2019-04-03T00:57:04.277Z,100569.40
2019-04-03T00:59:34.364Z,100563.30
2019-04-03T01:02:04.264Z,100546.70
2019-04-03T01:04:53.104Z,100561.23
2019-04-03T01:07:22.805Z,100554.34
2019-04-03T01:13:12.897Z,100548.95
2019-04-03T01:18:50.621Z,100541.04
2019-04-03T01:21:20.241Z,100544.24
2019-04-03T01:24:11.251Z,100534.27
2019-04-03T01:29:54.660Z,100523.94
2019-04-03T01:32:24.679Z,100522.81
2019-04-03T01:35:13.270Z,100524.95
2019-04-03T01:40:25.673Z,100530.93
2019-04-03T01:43:14.643Z,100529.55
2019-04-03T01:46:03.722Z,100529.55
2019-04-03T01:48:33.457Z,100521.34
2019-04-03T01:51:03.136Z,100517.95
2019-04-03T01:53:33.253Z,100502.23
2019-04-03T01:56:05.108Z,100510.12
2019-04-03T02:01:15.685Z,100501.02
2019-04-03T02:03:45.469Z,100501.02
2019-04-03T02:06:14.910Z,100498.03
2019-04-03T02:08:45.345Z,100497.75
2019-04-03T02:11:18.087Z,100503.23
2019-04-03T02:13:47.432Z,100489.44
2019-04-03T02:16:29.212Z,100489.44
2019-04-03T02:18:58.701Z,100494.43
2019-04-03T02:21:30.594Z,100483.09
2019-04-03T02:24:21.309Z,100483.09
2019-04-03T02:29:46.439Z,100487.11
2019-04-03T02:32:16.161Z,100487.11
2019-04-03T02:34:45.633Z,100485.66
2019-04-03T02:37:17.169Z,100483.23
2019-04-03T02:39:46.384Z,100483.23
2019-04-03T02:42:15.835Z,100481.08
2019-04-03T02:44:45.387Z,100479.13
2019-04-03T02:47:16.260Z,100482.60
2019-04-03T02:52:34.450Z,100474.87
2019-04-03T02:55:24.784Z,100467.93
2019-04-03T02:57:54.470Z,100467.93
2019-04-03T03:00:24.043Z,100462.03
2019-04-03T03:03:24.631Z,100461.13
2019-04-03T03:06:05.259Z,100457.86
2019-04-03T03:08:40.358Z,100457.86
2019-04-03T03:11:28.893Z,100457.72
2019-04-03T03:13:58.545Z,100457.72
2019-04-03T03:16:28.537Z,100450.58
2019-04-03T03:19:20.251Z,100451.13
2019-04-03T03:22:10.288Z,100443.70
2019-04-03T03:30:41.836Z,100435.64
2019-04-03T03:33:32.730Z,100439.91
2019-04-03T03:36:27.542Z,100440.32
2019-04-03T03:39:16.881Z,100448.02
2019-04-03T03:42:06.750Z,100448.02
2019-04-03T03:47:52.091Z,100441.24
2019-04-03T03:50:49.106Z,100441.45
2019-04-03T03:53:19.087Z,100441.80
2019-04-03T03:56:00.236Z,100439.02
2019-04-03T03:58:30.197Z,100441.56
2019-04-03T04:01:19.187Z,100442.97
2019-04-03T04:03:48.996Z,100434.02
2019-04-03T04:06:22.520Z,100434.02
2019-04-03T04:09:10.957Z,100439.16
2019-04-03T04:12:04.401Z,100439.16
2019-04-03T04:14:31.996Z,100433.04
2019-04-03T04:17:02.026Z,100428.99
2019-04-03T04:19:31.725Z,100427.88
2019-04-03T04:22:01.299Z,100427.06
2019-04-03T04:30:27.472Z,100421.32
2019-04-03T04:33:17.225Z,100421.32
2019-04-03T04:35:47.059Z,100425.33
2019-04-03T04:38:17.015Z,100419.58
2019-04-03T04:40:46.416Z,100424.27
2019-04-03T04:43:16.250Z,100413.36
2019-04-03T04:48:45.339Z,100419.29
2019-04-03T04:51:14.955Z,100412.20
2019-04-03T04:53:44.720Z,100416.06
2019-04-03T04:56:15.557Z,100404.66
2019-04-03T05:01:33.635Z,100415.70
2019-04-03T05:04:03.828Z,100415.76
2019-04-03T05:06:34.914Z,100410.36
2019-04-03T05:12:09.771Z,100414.74
2019-04-03T05:14:39.497Z,100417.73
2019-04-03T05:17:09.190Z,100419.77
2019-04-03T05:19:38.934Z,100418.63
2019-04-03T05:22:08.399Z,100418.33
2019-04-03T05:24:49.069Z,100424.33
2019-04-03T05:27:18.475Z,100428.14
2019-04-03T05:29:48.392Z,100424.20
2019-04-03T05:32:17.773Z,100430.17
2019-04-03T05:35:01.546Z,100431.71
2019-04-03T05:37:30.960Z,100431.25
2019-04-03T05:40:00.568Z,100427.45
2019-04-03T05:42:30.169Z,100430.63
2019-04-03T05:44:59.579Z,100431.63
2019-04-03T05:47:29.242Z,100424.85
2019-04-03T05:49:58.637Z,100426.70
2019-04-03T05:52:28.318Z,100426.05
2019-04-03T05:54:57.787Z,100428.03
2019-04-03T05:57:28.908Z,100429.87
2019-04-03T06:00:01.326Z,100427.74
2019-04-03T06:02:29.543Z,100433.71
2019-04-03T06:04:58.965Z,100432.73
2019-04-03T06:07:28.406Z,100432.73
2019-04-03T06:10:16.818Z,100431.59
2019-04-03T06:12:46.668Z,100431.59
2019-04-03T06:15:36.490Z,100430.80
2019-04-03T06:18:06.138Z,100420.36
2019-04-03T06:20:35.741Z,100430.98
2019-04-03T06:23:24.166Z,100433.14
2019-04-03T06:25:53.811Z,100433.14
2019-04-03T06:28:23.423Z,100431.81
2019-04-03T06:33:31.087Z,100424.52
2019-04-03T06:36:10.222Z,100425.98
2019-04-03T06:38:42.604Z,100423.14
2019-04-03T06:41:12.022Z,100421.66
2019-04-03T06:43:53.977Z,100425.27
2019-04-03T06:46:22.608Z,100419.59
2019-04-03T06:48:55.698Z,100425.25
2019-04-03T06:51:25.325Z,100418.73
2019-04-03T06:53:54.818Z,100421.72
2019-04-03T06:56:24.181Z,100423.16
2019-04-03T06:58:53.872Z,100429.12
2019-04-03T07:01:23.284Z,100429.73
2019-04-03T07:03:52.803Z,100431.18
2019-04-03T07:06:22.566Z,100438.26
2019-04-03T07:08:52.240Z,100428.92
2019-04-03T07:12:01.171Z,100422.89
2019-04-03T07:14:30.790Z,100425.17
2019-04-03T07:17:01.479Z,100428.91
2019-04-03T07:19:31.357Z,100420.92
2019-04-03T07:30:23.644Z,100418.66
2019-04-03T07:33:11.999Z,100420.34
2019-04-03T07:35:43.673Z,100418.48
2019-04-03T07:38:13.076Z,100419.52
2019-04-03T07:40:42.568Z,100410.75
2019-04-03T07:43:11.990Z,100404.17
2019-04-03T07:45:43.914Z,100406.12
2019-04-03T07:51:12.834Z,100409.61
2019-04-03T07:53:53.397Z,100410.61
2019-04-03T07:59:16.504Z,100403.16
2019-04-03T08:01:45.906Z,100405.70
2019-04-03T08:04:16.588Z,100403.31
2019-04-03T08:06:46.523Z,100404.70
2019-04-03T08:09:28.041Z,100394.36
2019-04-03T08:11:57.757Z,100396.33
2019-04-03T08:14:46.095Z,100391.00
2019-04-03T08:17:16.718Z,100387.91
2019-04-03T08:22:54.076Z,100388.08
2019-04-03T08:25:23.475Z,100391.02
2019-04-03T08:27:55.377Z,100397.86
2019-04-03T08:31:03.462Z,100391.83
2019-04-03T08:33:33.627Z,100391.45
2019-04-03T08:36:06.818Z,100392.77
2019-04-03T08:38:36.434Z,100390.89
2019-04-03T08:41:07.520Z,100390.06
2019-04-03T08:46:35.357Z,100395.41
2019-04-03T08:49:04.939Z,100392.81
2019-04-03T08:51:34.907Z,100389.39
2019-04-03T08:54:04.479Z,100381.18
2019-04-03T08:56:34.097Z,100383.20
2019-04-03T08:59:24.325Z,100389.14
2019-04-03T09:01:55.267Z,100387.53
2019-04-03T09:04:25.000Z,100383.86
2019-04-03T09:06:54.704Z,100381.25
2019-04-03T09:09:24.085Z,100380.23
2019-04-03T09:11:53.563Z,100382.41
2019-04-03T09:14:24.994Z,100373.83
2019-04-03T09:16:54.363Z,100381.34
2019-04-03T09:22:01.746Z,100380.91
2019-04-03T09:24:31.206Z,100375.17
2019-04-03T09:27:00.736Z,100368.52
2019-04-03T09:29:30.077Z,100367.77
2019-04-03T09:32:18.369Z,100363.98
2019-04-03T09:34:59.098Z,100361.64
2019-04-03T09:37:45.322Z,100353.53
2019-04-03T09:43:23.223Z,100345.52
2019-04-03T09:45:53.813Z,100353.94
2019-04-03T09:48:45.348Z,100347.97
2019-04-03T09:51:16.024Z,100344.03
2019-04-03T09:53:46.182Z,100350.52
2019-04-03T09:56:15.595Z,100349.29
2019-04-03T09:58:45.441Z,100358.23
2019-04-03T10:01:17.983Z,100351.41
2019-04-03T10:03:46.038Z,100344.91
2019-04-03T10:06:15.472Z,100331.68
2019-04-03T10:08:45.162Z,100345.83
2019-04-03T10:11:15.673Z,100341.25
2019-04-03T10:13:45.947Z,100344.14
2019-04-03T10:16:27.423Z,100345.53
2019-04-03T10:18:56.975Z,100348.72
2019-04-03T10:21:28.911Z,100351.25
2019-04-03T10:23:59.985Z,100347.53
2019-04-03T10:26:31.682Z,100345.46
2019-04-03T10:29:00.755Z,100341.77
2019-04-03T10:31:30.379Z,100338.40
2019-04-03T10:34:00.911Z,100335.83
2019-04-03T10:36:31.793Z,100340.69
2019-04-03T10:39:01.213Z,100336.36
2019-04-03T10:41:30.610Z,100334.48
2019-04-03T10:44:00.368Z,100328.82
2019-04-03T10:46:29.742Z,100333.36
2019-04-03T10:49:00.508Z,100331.50
2019-04-03T10:51:31.446Z,100334.80
2019-04-03T10:54:01.265Z,100324.75
2019-04-03T10:56:31.585Z,100335.41
2019-04-03T10:59:11.069Z,100342.78
2019-04-03T11:01:32.873Z,100330.95
2019-04-03T11:04:02.258Z,100326.61
2019-04-03T11:06:31.742Z,100332.38
2019-04-03T11:09:01.149Z,100325.48
2019-04-03T11:11:30.661Z,100336.31
2019-04-03T11:14:02.425Z,100329.77
2019-04-03T11:16:31.421Z,100331.72
2019-04-03T11:19:05.018Z,100324.28
2019-04-03T11:21:32.279Z,100319.22
2019-04-03T11:24:01.664Z,100323.55
2019-04-03T11:26:31.097Z,100320.53
2019-04-03T11:29:00.741Z,100321.69
2019-04-03T11:31:33.579Z,100321.63
2019-04-03T11:34:20.406Z,100325.72
2019-04-03T11:39:33.475Z,100323.77
2019-04-03T11:44:57.340Z,100311.51
2019-04-03T11:47:40.423Z,100315.53
2019-04-03T11:50:49.249Z,100319.66
2019-04-03T11:56:13.987Z,100315.95
2019-04-03T11:58:44.649Z,100315.73
2019-04-03T12:04:31.288Z,100321.23
2019-04-03T12:07:00.861Z,100314.81
2019-04-03T12:09:31.660Z,100321.11
2019-04-03T12:12:01.590Z,100316.17
2019-04-03T12:14:31.242Z,100313.73
2019-04-03T12:17:00.725Z,100315.50
2019-04-03T12:19:30.443Z,100312.20
2019-04-03T12:21:59.895Z,100316.62
2019-04-03T12:24:29.385Z,100311.41
2019-04-03T12:26:58.846Z,100308.30
2019-04-03T12:29:28.495Z,100318.09
2019-04-03T12:31:58.181Z,100320.59
2019-04-03T12:34:27.700Z,100326.03
2019-04-03T12:36:57.158Z,100311.94
2019-04-03T12:39:27.864Z,100320.20
2019-04-03T12:41:58.271Z,100316.94
2019-04-03T12:44:41.426Z,100316.88
2019-04-03T12:49:45.524Z,100325.59
2019-04-03T12:52:15.263Z,100327.59
2019-04-03T12:54:58.120Z,100328.99
2019-04-03T12:57:27.894Z,100323.81
2019-04-03T12:59:57.852Z,100330.16
2019-04-03T13:02:46.256Z,100333.98
2019-04-03T13:08:29.799Z,100320.94
2019-04-03T13:10:59.499Z,100320.88
2019-04-03T13:13:28.996Z,100308.51
2019-04-03T13:15:58.933Z,100317.99
2019-04-03T13:18:28.854Z,100332.91
2019-04-03T13:20:58.845Z,100325.06
2019-04-03T13:23:28.255Z,100333.56
2019-04-03T13:25:57.719Z,100326.38
2019-04-03T13:28:46.093Z,100325.44
2019-04-03T13:31:27.736Z,100329.87
2019-04-03T13:33:57.287Z,100329.29
2019-04-03T13:36:26.683Z,100327.27
2019-04-03T13:38:58.150Z,100322.36
2019-04-03T13:49:19.207Z,100315.02
2019-04-03T13:51:50.745Z,100315.50
2019-04-03T13:54:20.606Z,100316.04
2019-04-03T13:57:01.204Z,100314.33
2019-04-03T13:59:30.660Z,100316.57
2019-04-03T14:02:00.163Z,100311.95
2019-04-03T14:04:30.051Z,100317.31
2019-04-03T14:07:03.762Z,100314.44
2019-04-03T14:09:45.087Z,100310.52
2019-04-03T14:12:36.540Z,100315.27
2019-04-03T14:15:05.486Z,100309.74
2019-04-03T14:17:40.054Z,100317.38
2019-04-03T14:23:36.494Z,100319.31
2019-04-03T14:26:08.019Z,100322.80
2019-04-03T14:28:58.196Z,100321.23
2019-04-03T14:31:34.688Z,100316.39
2019-04-03T14:34:00.368Z,100319.55
2019-04-03T14:36:29.978Z,100316.23
2019-04-03T14:39:03.509Z,100316.80
2019-04-03T14:41:35.274Z,100322.52
2019-04-03T14:44:06.961Z,100318.14
2019-04-03T14:46:36.389Z,100316.80
2019-04-03T14:49:09.206Z,100316.59
2019-04-03T14:51:38.907Z,100320.19
2019-04-03T14:54:10.118Z,100315.95
2019-04-03T14:56:40.043Z,100314.12
2019-04-03T14:59:13.716Z,100311.27
2019-04-03T15:01:42.157Z,100311.18
2019-04-03T15:04:36.108Z,100305.72
2019-04-03T15:07:07.757Z,100312.23
2019-04-03T15:09:33.020Z,100310.00
2019-04-03T15:12:02.747Z,100312.59
2019-04-03T15:14:32.469Z,100313.11
2019-04-03T15:17:04.253Z,100312.59
2019-04-03T15:19:39.207Z,100310.05
2019-04-03T15:22:11.620Z,100308.42
2019-04-03T15:25:07.487Z,100309.90
2019-04-03T15:27:37.236Z,100301.48
2019-04-03T15:30:12.662Z,100303.47
2019-04-03T15:32:42.415Z,100306.86
2019-04-03T15:35:12.514Z,100301.81
2019-04-03T15:37:52.331Z,100300.99
2019-04-03T15:40:25.887Z,100295.66
2019-04-03T15:45:38.166Z,100305.03
2019-04-03T15:51:01.253Z,100303.28
2019-04-03T15:53:31.869Z,100295.14
2019-04-03T15:56:01.513Z,100298.36
2019-04-03T15:58:31.014Z,100296.59
2019-04-03T16:01:00.567Z,100292.58
2019-04-03T16:03:31.941Z,100291.77
2019-04-03T16:08:53.566Z,100294.12
2019-04-03T16:11:43.793Z,100291.20
2019-04-03T16:14:13.693Z,100294.78
2019-04-03T16:16:48.007Z,100296.84
2019-04-03T16:19:17.769Z,100294.27
2019-04-03T16:21:47.241Z,100293.55
2019-04-03T16:24:16.878Z,100295.20
2019-04-03T16:26:48.255Z,100287.39
2019-04-03T16:29:31.670Z,100286.48
2019-04-03T16:31:54.133Z,100292.80
2019-04-03T16:34:23.161Z,100292.80
2019-04-03T16:39:54.837Z,100286.30
2019-04-03T16:48:08.652Z,100295.53
2019-04-03T16:50:39.650Z,100293.66
2019-04-03T16:53:10.730Z,100297.20
2019-04-03T16:55:40.305Z,100304.03
2019-04-03T16:58:12.527Z,100301.63
2019-04-03T17:00:42.829Z,100307.44
2019-04-03T17:03:16.400Z,100302.34
2019-04-03T17:08:21.752Z,100311.95
2019-04-03T17:10:51.258Z,100305.53
2019-04-03T17:16:29.658Z,100307.06
2019-04-03T17:18:59.165Z,100305.70
2019-04-03T17:21:35.768Z,100304.12
2019-04-03T17:24:00.282Z,100312.55
2019-04-03T17:26:29.775Z,100309.12
2019-04-03T17:29:03.856Z,100308.17
2019-04-03T17:31:30.790Z,100313.48
2019-04-03T17:34:02.380Z,100313.28
2019-04-03T17:36:43.074Z,100312.30
2019-04-03T17:39:12.803Z,100320.05
2019-04-03T17:41:42.545Z,100316.70
2019-04-03T17:46:48.929Z,100320.91
2019-04-03T17:49:29.731Z,100321.80
2019-04-03T17:51:59.293Z,100309.30
2019-04-03T17:54:28.711Z,100317.94
2019-04-03T17:56:58.229Z,100320.20
2019-04-03T17:59:27.636Z,100317.86
2019-04-03T18:01:58.154Z,100318.47
2019-04-03T18:04:27.824Z,100325.36
2019-04-03T18:06:57.990Z,100323.14
2019-04-03T18:09:28.580Z,100322.73
2019-04-03T18:11:58.222Z,100325.33
2019-04-03T18:14:29.246Z,100317.70
2019-04-03T18:17:01.169Z,100326.89
2019-04-03T18:19:37.306Z,100323.95
2019-04-03T18:22:01.165Z,100326.32
2019-04-03T18:24:30.605Z,100325.50
2019-04-03T18:27:02.251Z,100323.05
2019-04-03T18:29:31.181Z,100330.40
2019-04-03T18:34:55.710Z,100333.42
2019-04-03T18:37:24.314Z,100337.49
2019-04-03T18:39:53.720Z,100332.52
2019-04-03T18:42:23.115Z,100335.09
2019-04-03T18:47:40.544Z,100330.33
2019-04-03T18:50:03.544Z,100333.00
2019-04-03T18:52:38.548Z,100327.70
2019-04-03T18:55:27.432Z,100326.23
2019-04-03T19:03:17.013Z,100327.92
2019-04-03T19:08:27.631Z,100324.86
2019-04-03T19:14:03.754Z,100323.70
2019-04-03T19:16:46.329Z,100318.42
2019-04-03T19:19:16.324Z,100318.30
2019-04-03T19:21:44.800Z,100319.52
2019-04-03T19:24:14.322Z,100321.89
2019-04-03T19:26:43.937Z,100328.43
2019-04-03T19:29:13.467Z,100325.59
2019-04-03T19:31:43.256Z,100320.39
2019-04-03T19:37:11.854Z,100316.58
2019-04-03T19:42:06.965Z,100315.24
2019-04-03T19:44:49.767Z,100317.11
2019-04-03T19:47:19.497Z,100316.45
2019-04-03T19:50:07.908Z,100316.48
2019-04-03T19:52:41.589Z,100314.33
2019-04-03T19:55:29.247Z,100319.03
2019-04-03T19:58:13.097Z,100313.92
2019-04-03T20:00:30.510Z,100319.09
2019-04-03T20:03:14.197Z,100319.13
2019-04-03T20:05:44.440Z,100312.83
2019-04-03T20:08:13.947Z,100320.69
2019-04-03T20:10:43.438Z,100313.72
2019-04-03T20:13:13.038Z,100318.70
2019-04-03T20:15:42.534Z,100318.05
2019-04-03T20:18:30.947Z,100314.74
2019-04-03T20:21:03.574Z,100315.07
2019-04-03T20:23:44.374Z,100318.76
2019-04-03T20:26:32.686Z,100309.69
2019-04-03T20:29:02.572Z,100306.73
2019-04-03T20:31:31.980Z,100302.41
2019-04-03T20:34:01.717Z,100303.41
2019-04-03T20:39:08.790Z,100307.73
2019-04-03T20:41:38.419Z,100306.20
2019-04-03T20:44:08.029Z,100305.37
2019-04-03T20:46:37.685Z,100302.53
2019-04-03T20:51:35.337Z,100311.02
2019-04-03T20:54:04.823Z,100311.02
2019-04-03T20:56:57.545Z,100316.98
2019-04-03T20:59:24.518Z,100313.62
2019-04-03T21:01:54.101Z,100318.43
2019-04-03T21:04:25.561Z,100316.78
2019-04-03T21:06:55.039Z,100318.94
2019-04-03T21:09:24.696Z,100318.94
2019-04-03T21:11:54.117Z,100324.08
2019-04-03T21:14:23.575Z,100326.73
2019-04-03T21:16:56.172Z,100326.23
2019-04-03T21:19:26.783Z,100321.42
2019-04-03T21:22:15.091Z,100335.36
2019-04-03T21:24:56.669Z,100334.53
2019-04-03T21:27:26.059Z,100327.73
2019-04-03T21:29:58.100Z,100325.97
2019-04-03T21:32:28.644Z,100320.84
2019-04-03T21:34:58.015Z,100325.19
2019-04-03T21:37:27.418Z,100322.88
2019-04-03T21:39:56.882Z,100323.58
2019-04-03T21:42:26.990Z,100321.77
2019-04-03T21:44:57.489Z,100329.27
2019-04-03T21:47:27.034Z,100316.66
2019-04-03T21:49:56.434Z,100324.13
2019-04-03T21:52:25.923Z,100325.28
2019-04-03T21:54:58.404Z,100322.80
2019-04-03T22:00:01.174Z,100322.70
2019-04-03T22:02:30.711Z,100321.91
2019-04-03T22:05:00.129Z,100316.14
2019-04-03T22:07:29.523Z,100325.78
2019-04-03T22:10:01.612Z,100316.17
2019-04-03T22:12:30.230Z,100315.23
2019-04-03T22:15:14.607Z,100326.37
2019-04-03T22:18:02.987Z,100321.90
2019-04-03T22:20:44.411Z,100317.92
2019-04-03T22:23:14.286Z,100321.13
2019-04-03T22:28:34.534Z,100317.50
2019-04-03T22:31:06.429Z,100320.98
2019-04-03T22:33:35.830Z,100314.89
2019-04-03T22:38:40.361Z,100314.24
2019-04-03T22:41:12.120Z,100315.07
2019-04-03T22:43:44.136Z,100313.08
2019-04-03T22:46:15.007Z,100308.09
2019-04-03T22:48:44.400Z,100316.23
2019-04-03T22:51:13.843Z,100318.38
2019-04-03T22:53:46.182Z,100320.55
2019-04-03T22:59:04.078Z,100313.59
2019-04-03T23:01:33.538Z,100311.93
2019-04-03T23:04:04.951Z,100311.56
2019-04-03T23:06:34.127Z,100307.09
2019-04-03T23:09:24.682Z,100302.27
2019-04-03T23:11:53.966Z,100305.13
2019-04-03T23:14:23.417Z,100298.83
2019-04-03T23:17:01.246Z,100300.83
2019-04-03T23:22:45.589Z,100297.52
2019-04-03T23:25:15.007Z,100294.53
2019-04-03T23:27:44.366Z,100289.89
2019-04-03T23:30:13.880Z,100288.94
2019-04-03T23:32:45.715Z,100287.45
2019-04-03T23:35:14.471Z,100285.30
2019-04-03T23:37:43.954Z,100280.01
2019-04-03T23:40:13.412Z,100291.28
2019-04-03T23:47:55.755Z,100292.49
2019-04-03T23:53:21.337Z,100291.50
2019-04-03T23:55:55.323Z,100293.49
2019-04-03T23:58:24.747Z,100288.36
